EKRK/RKE METAR and TAF weather

Enter ICAO airport designator
Station Type Date Time Source
EKRK METAR 2019/02/23 16:50 UTC NOAA

EKRK 231650Z AUTO 20005KT 9999NDV NCD 02/M02 Q1039


Station Type Date Time Source
EKRK Decoded METAR 2019/02/23 16:50 UTC NOAA

Koebenhavn / Roskilde, Denmark (EKRK) 55-35N 012-08E 44M
Feb 23, 2019 - 11:50 AM EST / 2019.02.23 1650 UTC
Wind: from the SSW (200 degrees) at 6 MPH (5 KT):0
Temperature: 35 F (2 C)
Windchill: 30 F (-1 C):1
Dew Point: 28 F (-2 C)
Relative Humidity: 74%
Pressure (altimeter): 30.68 in. Hg (1039 hPa)
ob: EKRK 231650Z AUTO 20005KT 9999NDV NCD 02/M02 Q1039
cycle: 17

Station Type Date Time Source
EKRK TAF UTC NOAA

Error!


Example: see airport list